Time;durP1;ratioP1;P1;durP2;ratioP2;P2;SDS_P1;SDS_P2;PMS_P1;PMS_P2;Temp;Humidity;BMP_temperature;BMP_pressure;BME280_temperature;BME280_humidity;BME280_pressure;Samples;Min_cycle;Max_cycle;Signal;HPM_P1;HPM_P2
2022/10/01 00:01:58;;;;;;;16.15;6.22;;;16.70;63.50;;;;;;5094604;28;20020;-75
2022/10/01 00:04:26;;;;;;;12.98;5.07;;;16.70;63.60;;;;;;5094561;28;20473;-77
2022/10/01 00:06:51;;;;;;;11.27;5.22;;;16.70;63.50;;;;;;5094520;28;20036;-76
2022/10/01 00:09:17;;;;;;;12.77;6.32;;;16.70;63.60;;;;;;5094397;28;20020;-77
2022/10/01 00:11:43;;;;;;;7.50;4.38;;;16.70;63.60;;;;;;5094388;28;20012;-78
2022/10/01 00:14:09;;;;;;;6.05;4.10;;;16.60;63.50;;;;;;5110077;28;20528;-77
2022/10/01 00:16:35;;;;;;;8.35;3.88;;;16.70;63.70;;;;;;5094237;28;20024;-76
2022/10/01 00:19:01;;;;;;;6.47;3.50;;;16.70;63.70;;;;;;5094208;28;20089;-75
2022/10/01 00:21:30;;;;;;;9.27;3.75;;;16.60;63.70;;;;;;5093870;28;20028;-77
2022/10/01 00:23:58;;;;;;;6.50;3.40;;;16.60;63.80;;;;;;5092795;28;20024;-77
2022/10/01 00:26:27;;;;;;;3.40;2.72;;;16.60;63.70;;;;;;5094105;28;20028;-76
2022/10/01 00:28:56;;;;;;;7.43;3.38;;;16.60;63.80;;;;;;5094065;28;20424;-76
2022/10/01 00:31:23;;;;;;;4.65;3.47;;;16.60;63.80;;;;;;5093888;28;20024;-76
2022/10/01 00:33:54;;;;;;;4.85;3.40;;;16.60;63.80;;;;;;5093718;28;20026;-77
2022/10/01 00:36:20;;;;;;;8.07;3.10;;;16.60;63.80;;;;;;5093929;28;20025;-75
2022/10/01 00:38:47;;;;;;;7.43;3.22;;;16.60;64.00;;;;;;5093870;28;20023;-77
2022/10/01 00:41:14;;;;;;;15.25;3.72;;;16.60;63.90;;;;;;5093875;28;20028;-76
2022/10/01 00:43:49;;;;;;;4.43;2.75;;;16.60;64.00;;;;;;5093813;28;20032;-77
2022/10/01 00:46:25;;;;;;;5.35;2.70;;;16.60;63.90;;;;;;5093593;28;20044;-76
2022/10/01 00:48:57;;;;;;;4.28;2.92;;;16.60;63.90;;;;;;5093582;28;20020;-76
2022/10/01 00:51:28;;;;;;;4.30;3.10;;;16.60;63.80;;;;;;5093235;28;20023;-76
2022/10/01 00:54:05;;;;;;;3.30;2.60;;;16.60;63.80;;;;;;5108970;28;20111;-77
2022/10/01 00:56:31;;;;;;;7.05;3.25;;;16.60;63.90;;;;;;5093553;28;20085;-75
2022/10/01 00:58:59;;;;;;;3.33;2.67;;;16.60;63.90;;;;;;5093553;28;20427;-76
2022/10/01 01:01:25;;;;;;;6.82;2.78;;;16.60;64.00;;;;;;5092212;28;20083;-77
2022/10/01 01:03:51;;;;;;;3.22;2.75;;;16.60;64.00;;;;;;5093394;28;20037;-77
2022/10/01 01:06:17;;;;;;;6.07;3.10;;;16.60;64.10;;;;;;5092086;28;20414;-78
2022/10/01 01:08:43;;;;;;;2.90;2.38;;;16.60;64.20;;;;;;5093314;28;20024;-77
2022/10/01 01:11:36;;;;;;;5.68;2.55;;;16.60;64.20;;;;;;5093237;28;20384;-76
2022/10/01 01:14:33;;;;;;;4.63;2.35;;;16.60;64.20;;;;;;5108983;28;20126;-75
2022/10/01 01:17:09;;;;;;;3.33;2.50;;;16.60;64.20;;;;;;5093127;28;20023;-77
2022/10/01 01:19:59;;;;;;;6.53;2.70;;;16.60;64.20;;;;;;5092004;28;20389;-77
2022/10/01 01:22:30;;;;;;;5.40;2.55;;;16.60;64.30;;;;;;5092859;28;20028;-75
2022/10/01 01:25:10;;;;;;;9.63;2.85;;;16.60;64.30;;;;;;5093146;28;20488;-77
2022/10/01 01:28:00;;;;;;;6.68;2.90;;;16.50;64.40;;;;;;5093179;28;20520;-77
2022/10/01 01:30:26;;;;;;;3.63;2.72;;;16.50;64.50;;;;;;5091778;28;20024;-77
2022/10/01 01:33:02;;;;;;;4.18;3.00;;;16.50;64.60;;;;;;5093055;28;20020;-76
2022/10/01 01:35:36;;;;;;;8.00;3.05;;;16.40;64.80;;;;;;5093293;28;20415;-75
2022/10/01 01:38:13;;;;;;;4.30;2.95;;;16.40;64.90;;;;;;5092965;28;20013;-77
2022/10/01 01:40:41;;;;;;;4.22;3.03;;;16.40;64.80;;;;;;5093021;28;20028;-75
2022/10/01 01:43:14;;;;;;;3.53;2.75;;;16.40;64.80;;;;;;5091659;28;20039;-76
2022/10/01 01:45:42;;;;;;;6.60;2.42;;;16.30;64.70;;;;;;5092776;28;20101;-75
2022/10/01 01:48:10;;;;;;;6.63;2.70;;;16.40;64.70;;;;;;5092900;28;20024;-77
2022/10/01 01:50:46;;;;;;;3.47;2.53;;;16.40;64.70;;;;;;5092762;28;20154;-76
2022/10/01 01:53:14;;;;;;;10.32;2.67;;;16.40;64.60;;;;;;5092610;28;20496;-77
2022/10/01 01:55:40;;;;;;;3.45;2.45;;;16.40;64.60;;;;;;5092875;28;20047;-76
2022/10/01 01:58:07;;;;;;;3.30;2.22;;;16.40;64.60;;;;;;5092838;28;20453;-77
2022/10/01 02:00:33;;;;;;;3.22;2.35;;;16.40;64.60;;;;;;5092850;28;20028;-77
2022/10/01 02:02:59;;;;;;;3.30;2.55;;;16.40;64.50;;;;;;5092819;28;20044;-75
2022/10/01 02:05:30;;;;;;;3.88;2.53;;;16.40;64.50;;;;;;5092828;28;20105;-75
2022/10/01 02:08:32;;;;;;;3.17;2.42;;;16.50;64.60;;;;;;5096602;28;20029;-78
2022/10/01 02:11:20;;;;;;;3.90;2.33;;;16.50;64.40;;;;;;5112429;28;20062;-77
2022/10/01 02:14:01;;;;;;;3.20;2.55;;;16.50;64.20;;;;;;5112453;28;20020;-76
2022/10/01 02:16:47;;;;;;;7.68;3.85;;;16.50;64.20;;;;;;5096286;28;20020;-76
2022/10/01 02:19:30;;;;;;;4.45;3.40;;;16.50;64.20;;;;;;5076374;28;20024;-77
2022/10/01 02:21:58;;;;;;;6.53;3.13;;;16.50;64.20;;;;;;5076296;28;20016;-77
2022/10/01 02:24:57;;;;;;;10.40;3.10;;;16.50;64.20;;;;;;5076197;28;20016;-76
2022/10/01 02:27:43;;;;;;;8.95;2.80;;;16.40;64.20;;;;;;5076119;28;20421;-75
2022/10/01 02:30:11;;;;;;;8.27;3.17;;;16.40;64.20;;;;;;5076038;28;20074;-77
2022/10/01 02:32:39;;;;;;;3.63;2.90;;;16.40;64.20;;;;;;5076005;28;20016;-76
2022/10/01 02:35:08;;;;;;;4.32;2.90;;;16.40;64.20;;;;;;5075950;28;20111;-80
2022/10/01 02:37:36;;;;;;;4.57;2.75;;;16.40;64.20;;;;;;5075946;28;20016;-76
2022/10/01 02:40:06;;;;;;;4.75;2.95;;;16.40;64.30;;;;;;5075961;28;20020;-77
2022/10/01 02:42:34;;;;;;;3.72;2.90;;;16.50;64.40;;;;;;5075869;28;20103;-78
2022/10/01 02:45:03;;;;;;;4.95;3.10;;;16.40;64.40;;;;;;5075650;28;20081;-74
2022/10/01 02:47:35;;;;;;;4.57;2.65;;;16.40;64.40;;;;;;5085431;28;20066;-76
2022/10/01 02:50:03;;;;;;;4.35;2.60;;;16.40;64.60;;;;;;5095956;28;20052;-76
2022/10/01 02:52:54;;;;;;;3.22;2.40;;;16.40;64.50;;;;;;5095986;28;20473;-77
2022/10/01 02:55:27;;;;;;;4.15;2.72;;;16.40;64.80;;;;;;5096000;28;20067;-75
2022/10/01 02:57:54;;;;;;;11.80;3.20;;;16.40;64.90;;;;;;5095956;28;20070;-76
2022/10/01 03:00:20;;;;;;;6.40;2.92;;;16.40;64.90;;;;;;5094551;28;20058;-75
2022/10/01 03:02:47;;;;;;;8.65;3.20;;;16.30;64.90;;;;;;5095731;28;20024;-76
2022/10/01 03:05:14;;;;;;;6.90;2.88;;;16.30;65.10;;;;;;5095766;28;20429;-75
2022/10/01 03:07:40;;;;;;;5.47;3.08;;;16.30;65.20;;;;;;5095862;28;20468;-78
2022/10/01 03:10:07;;;;;;;7.82;2.92;;;16.30;65.20;;;;;;5095703;28;20027;-77
2022/10/01 03:12:34;;;;;;;3.83;2.60;;;16.20;65.20;;;;;;5094380;28;20031;-77
2022/10/01 03:15:01;;;;;;;4.95;2.70;;;16.20;65.10;;;;;;5095587;28;20031;-77
2022/10/01 03:17:27;;;;;;;4.57;2.75;;;16.20;65.10;;;;;;5095129;28;20105;-76
2022/10/01 03:19:53;;;;;;;5.53;3.00;;;16.20;65.10;;;;;;5095395;28;20067;-76
2022/10/01 03:22:24;;;;;;;10.23;3.15;;;16.20;65.20;;;;;;5095311;28;20069;-78
2022/10/01 03:24:51;;;;;;;3.85;2.95;;;16.20;65.10;;;;;;5095567;28;20038;-77
2022/10/01 03:27:18;;;;;;;6.43;3.35;;;16.20;65.10;;;;;;5094080;28;20554;-76
2022/10/01 03:29:44;;;;;;;4.00;2.72;;;16.20;65.20;;;;;;5095402;28;20381;-76
2022/10/01 03:32:11;;;;;;;9.50;2.85;;;16.20;65.20;;;;;;5095346;28;20020;-76
2022/10/01 03:34:36;;;;;;;12.88;3.55;;;16.20;65.10;;;;;;5095296;28;20093;-77
2022/10/01 03:37:02;;;;;;;3.83;2.65;;;16.20;65.20;;;;;;5095277;28;20474;-76
2022/10/01 03:39:29;;;;;;;4.18;2.92;;;16.20;65.20;;;;;;5095115;28;20028;-77
2022/10/01 03:41:54;;;;;;;4.30;2.80;;;16.20;65.20;;;;;;5093807;28;20070;-76
2022/10/01 03:44:20;;;;;;;4.25;2.85;;;16.20;65.20;;;;;;5094982;28;20473;-78
2022/10/01 03:46:46;;;;;;;9.25;2.55;;;16.20;65.20;;;;;;5093189;28;20044;-77
2022/10/01 03:49:12;;;;;;;4.53;2.67;;;16.20;65.10;;;;;;5094896;28;20020;-77
2022/10/01 03:51:38;;;;;;;9.15;2.55;;;16.30;65.10;;;;;;5110486;28;20123;-79
2022/10/01 03:54:06;;;;;;;5.68;2.83;;;16.30;65.10;;;;;;5094773;28;20020;-76
2022/10/01 03:56:32;;;;;;;3.00;2.20;;;16.30;65.10;;;;;;5094843;28;20059;-75
2022/10/01 03:58:58;;;;;;;4.47;2.70;;;16.30;65.20;;;;;;5095116;28;20466;-76
2022/10/01 04:01:24;;;;;;;3.65;2.72;;;16.30;65.20;;;;;;5094600;28;20030;-77
2022/10/01 04:03:51;;;;;;;4.10;2.95;;;16.30;65.20;;;;;;5094707;28;20057;-77
2022/10/01 04:06:18;;;;;;;5.53;2.50;;;16.30;65.20;;;;;;5094782;28;20028;-77
2022/10/01 04:08:44;;;;;;;3.80;2.70;;;16.30;65.20;;;;;;5110301;28;20481;-76
2022/10/01 04:11:10;;;;;;;3.80;2.53;;;16.30;65.20;;;;;;5094492;28;20031;-76
2022/10/01 04:13:36;;;;;;;5.53;2.60;;;16.40;65.30;;;;;;5094376;28;20024;-77
2022/10/01 04:16:03;;;;;;;4.00;2.47;;;16.30;65.20;;;;;;5094511;28;20020;-76
2022/10/01 04:18:29;;;;;;;4.13;2.85;;;16.30;65.20;;;;;;5094235;28;20020;-76
2022/10/01 04:20:56;;;;;;;6.70;2.90;;;16.30;65.20;;;;;;5094410;28;20020;-77
2022/10/01 04:23:23;;;;;;;4.75;2.78;;;16.40;65.20;;;;;;5094185;28;20016;-76
2022/10/01 04:25:49;;;;;;;3.75;2.83;;;16.30;64.90;;;;;;5094261;28;20028;-77
2022/10/01 04:28:16;;;;;;;4.18;2.60;;;16.30;64.90;;;;;;5094083;28;20432;-75
2022/10/01 04:30:44;;;;;;;21.10;3.05;;;16.30;64.70;;;;;;5093723;28;20020;-78
2022/10/01 04:33:16;;;;;;;5.80;2.72;;;16.30;64.60;;;;;;5094135;28;20020;-76
2022/10/01 04:35:42;;;;;;;6.40;2.80;;;16.20;64.60;;;;;;5094082;28;20012;-75
2022/10/01 04:38:15;;;;;;;11.98;3.42;;;16.20;64.60;;;;;;5094057;28;20024;-78
2022/10/01 04:40:41;;;;;;;5.60;2.78;;;16.10;64.70;;;;;;5093995;28;20110;-75
2022/10/01 04:43:11;;;;;;;3.47;2.75;;;16.00;64.70;;;;;;5094070;28;20015;-79
2022/10/01 04:45:37;;;;;;;4.00;2.85;;;16.00;65.00;;;;;;5093833;28;20049;-75
2022/10/01 04:48:04;;;;;;;7.25;3.03;;;15.90;65.20;;;;;;5093653;28;20149;-75
2022/10/01 04:50:30;;;;;;;6.90;3.22;;;15.90;65.50;;;;;;5093836;28;20027;-75
2022/10/01 04:52:56;;;;;;;6.00;2.90;;;15.90;65.70;;;;;;5093685;28;20062;-75
2022/10/01 04:55:23;;;;;;;7.82;3.03;;;15.80;65.60;;;;;;5093679;28;20020;-77
2022/10/01 04:57:49;;;;;;;10.50;3.30;;;15.80;65.60;;;;;;5109389;28;20427;-77
2022/10/01 05:00:19;;;;;;;11.52;3.63;;;15.80;65.60;;;;;;5092307;28;20023;-78
2022/10/01 05:02:46;;;;;;;5.45;3.28;;;15.80;65.80;;;;;;5109315;28;20031;-78
2022/10/01 05:05:17;;;;;;;6.43;3.13;;;15.70;65.90;;;;;;5093595;28;20432;-81
2022/10/01 05:07:43;;;;;;;6.25;3.22;;;15.70;66.10;;;;;;5093531;28;20232;-74
2022/10/01 05:10:18;;;;;;;7.82;3.80;;;15.60;66.10;;;;;;5093176;28;20028;-74
2022/10/01 05:12:45;;;;;;;15.32;4.55;;;15.60;66.70;;;;;;5093349;28;20019;-75
2022/10/01 05:15:11;;;;;;;4.28;3.28;;;15.60;67.40;;;;;;5093637;28;20021;-77
2022/10/01 05:17:37;;;;;;;5.55;3.28;;;15.50;67.70;;;;;;5093305;28;20099;-76
2022/10/01 05:20:05;;;;;;;5.20;3.22;;;15.50;68.00;;;;;;5093080;28;20067;-74
2022/10/01 05:22:30;;;;;;;11.13;3.72;;;15.40;68.10;;;;;;5093161;28;20028;-76
2022/10/01 05:24:59;;;;;;;5.00;3.30;;;15.40;68.00;;;;;;5093290;28;20496;-75
2022/10/01 05:27:29;;;;;;;4.93;3.65;;;15.40;68.00;;;;;;5093284;28;20050;-76
2022/10/01 05:29:56;;;;;;;5.63;3.90;;;15.50;68.20;;;;;;5093238;28;20035;-77
2022/10/01 05:32:22;;;;;;;8.48;3.78;;;15.40;68.30;;;;;;5091786;28;20024;-74
2022/10/01 05:34:48;;;;;;;5.20;3.78;;;15.50;68.10;;;;;;5093119;28;20069;-77
2022/10/01 05:37:14;;;;;;;8.95;4.10;;;15.50;68.00;;;;;;5093166;28;20028;-75
2022/10/01 05:39:40;;;;;;;7.22;3.78;;;15.50;67.90;;;;;;5093106;28;20035;-76
2022/10/01 05:42:05;;;;;;;4.90;3.67;;;15.50;67.90;;;;;;5095590;28;20020;-73
2022/10/01 05:44:36;;;;;;;5.53;3.75;;;15.50;68.70;;;;;;5097233;28;20477;-74
2022/10/01 05:47:06;;;;;;;11.30;4.32;;;15.50;67.90;;;;;;5096695;28;20043;-74
2022/10/01 05:49:32;;;;;;;9.38;4.78;;;15.60;68.00;;;;;;5095843;28;20020;-74
2022/10/01 05:51:59;;;;;;;5.03;4.00;;;15.60;68.00;;;;;;5097115;28;20024;-75
2022/10/01 05:54:28;;;;;;;6.05;4.30;;;15.60;67.80;;;;;;5095837;28;20157;-76
2022/10/01 05:56:54;;;;;;;5.03;3.95;;;15.70;67.80;;;;;;5097104;28;20020;-76
2022/10/01 05:59:20;;;;;;;6.63;4.82;;;15.70;67.80;;;;;;5097011;28;20016;-75
2022/10/01 06:01:46;;;;;;;6.90;4.55;;;15.70;67.70;;;;;;5096849;28;20023;-75
2022/10/01 06:04:12;;;;;;;8.80;4.85;;;15.80;67.70;;;;;;5097029;28;20020;-75
2022/10/01 06:06:38;;;;;;;10.75;4.28;;;15.90;67.70;;;;;;5096841;28;20023;-76
2022/10/01 06:09:04;;;;;;;11.38;4.25;;;15.90;67.60;;;;;;5095453;28;20031;-75
2022/10/01 06:11:30;;;;;;;7.53;4.05;;;15.90;67.50;;;;;;5096733;28;20481;-77
2022/10/01 06:13:55;;;;;;;11.30;4.20;;;16.00;67.40;;;;;;5096894;28;20020;-75
2022/10/01 06:16:21;;;;;;;11.13;4.10;;;16.10;67.30;;;;;;5096716;28;20389;-77
2022/10/01 06:18:48;;;;;;;6.20;4.50;;;16.10;67.20;;;;;;5096349;28;20032;-76
2022/10/01 06:21:14;;;;;;;7.43;5.60;;;16.20;67.20;;;;;;5096687;28;20024;-76
2022/10/01 06:23:43;;;;;;;6.25;4.38;;;16.20;67.10;;;;;;5095132;28;20031;-78
2022/10/01 06:26:09;;;;;;;8.95;5.20;;;16.30;67.00;;;;;;5095248;28;20139;-77
2022/10/01 06:28:34;;;;;;;9.57;5.32;;;16.40;67.00;;;;;;5095242;28;20064;-76
2022/10/01 06:31:01;;;;;;;6.43;5.07;;;16.50;66.80;;;;;;5094967;28;20032;-78
2022/10/01 06:33:27;;;;;;;8.45;5.40;;;16.50;66.60;;;;;;5096349;28;20475;-77
2022/10/01 06:35:53;;;;;;;8.77;5.13;;;16.60;66.30;;;;;;5096405;28;20066;-78
2022/10/01 06:38:21;;;;;;;9.98;6.43;;;16.70;66.00;;;;;;5095003;28;20028;-76
2022/10/01 06:40:56;;;;;;;12.45;7.13;;;16.70;65.90;;;;;;5096346;28;20029;-76
2022/10/01 06:43:23;;;;;;;16.08;9.55;;;16.80;65.60;;;;;;5096339;28;20599;-78
2022/10/01 06:45:49;;;;;;;17.67;9.88;;;16.80;65.50;;;;;;5095919;28;20048;-77
2022/10/01 06:48:18;;;;;;;19.05;10.50;;;16.90;65.50;;;;;;5095803;28;20024;-78
2022/10/01 06:50:46;;;;;;;22.90;12.38;;;17.00;65.50;;;;;;5095921;28;20026;-77
2022/10/01 06:53:13;;;;;;;30.00;14.68;;;17.00;65.50;;;;;;5095562;28;20046;-77
2022/10/01 06:55:39;;;;;;;32.67;16.50;;;17.10;65.50;;;;;;5096056;28;20466;-77
2022/10/01 06:58:09;;;;;;;41.63;19.92;;;17.20;65.40;;;;;;5096029;28;20035;-78
2022/10/01 07:00:37;;;;;;;41.05;20.75;;;17.30;64.80;;;;;;5095962;28;20023;-78
2022/10/01 07:03:09;;;;;;;45.30;21.83;;;17.40;64.60;;;;;;5095934;28;20048;-77
2022/10/01 07:05:36;;;;;;;41.20;20.90;;;17.40;64.30;;;;;;5111440;28;20468;-76
2022/10/01 07:08:02;;;;;;;47.05;22.23;;;17.50;64.00;;;;;;5104493;28;20032;-76
2022/10/01 07:10:28;;;;;;;41.70;21.30;;;17.40;63.60;;;;;;5075375;28;20048;-76
2022/10/01 07:12:54;;;;;;;39.95;18.90;;;17.40;63.10;;;;;;5075467;28;20462;-76
2022/10/01 07:15:21;;;;;;;39.10;20.77;;;17.40;63.00;;;;;;5075384;28;20055;-76
2022/10/01 07:17:49;;;;;;;54.58;25.88;;;17.30;63.70;;;;;;5083547;28;20027;-78
2022/10/01 07:20:20;;;;;;;53.40;26.52;;;17.30;63.30;;;;;;5111151;28;20046;-76
2022/10/01 07:22:47;;;;;;;49.42;23.80;;;17.30;63.50;;;;;;5095489;28;20055;-76
2022/10/01 07:25:13;;;;;;;50.75;23.48;;;17.20;63.60;;;;;;5111240;28;20023;-75
2022/10/01 07:27:39;;;;;;;38.58;19.90;;;17.20;63.70;;;;;;5111146;28;20053;-76
2022/10/01 07:30:09;;;;;;;32.55;16.77;;;17.20;63.80;;;;;;5095295;28;20057;-76
2022/10/01 07:32:35;;;;;;;32.30;16.60;;;17.20;63.90;;;;;;5095352;28;20040;-76
2022/10/01 07:35:01;;;;;;;30.98;15.75;;;17.30;63.90;;;;;;5095274;28;20052;-78
2022/10/01 07:37:27;;;;;;;24.77;13.15;;;17.30;64.00;;;;;;5095274;28;20050;-76
2022/10/01 07:39:53;;;;;;;27.33;14.20;;;17.30;63.90;;;;;;5094987;28;20056;-77
2022/10/01 07:42:20;;;;;;;25.40;13.60;;;17.40;63.90;;;;;;5110746;28;20130;-76
2022/10/01 07:44:46;;;;;;;26.83;12.55;;;17.50;63.60;;;;;;5095350;28;20028;-78
2022/10/01 07:47:13;;;;;;;19.60;10.88;;;17.50;63.20;;;;;;5093386;28;20439;-76
2022/10/01 07:49:39;;;;;;;20.80;11.48;;;17.60;63.10;;;;;;5095000;28;20103;-79
2022/10/01 07:52:05;;;;;;;17.40;9.80;;;17.60;63.00;;;;;;5095029;28;20108;-76
2022/10/01 07:54:31;;;;;;;12.38;7.72;;;17.70;63.00;;;;;;5094860;28;20016;-78
2022/10/01 07:56:58;;;;;;;14.73;8.02;;;17.80;63.40;;;;;;5093608;28;20020;-77
2022/10/01 07:59:26;;;;;;;13.95;7.40;;;17.90;63.00;;;;;;5094830;28;20020;-77
2022/10/01 08:01:53;;;;;;;12.32;6.90;;;18.00;62.70;;;;;;5093892;28;20016;-78
2022/10/01 08:07:07;;;;;;;8.40;5.20;;;18.40;61.90;;;;;;5094892;28;20033;-76
2022/10/01 08:09:33;;;;;;;7.53;4.80;;;18.60;61.50;;;;;;5093166;28;20080;-79
2022/10/01 08:12:01;;;;;;;7.30;3.95;;;18.80;60.60;;;;;;5094604;28;20024;-79
2022/10/01 08:14:29;;;;;;;7.50;3.55;;;18.90;60.60;;;;;;5093394;28;20421;-76
2022/10/01 08:16:55;;;;;;;6.68;3.45;;;19.10;60.20;;;;;;5094344;28;20023;-77
2022/10/01 08:19:21;;;;;;;4.78;3.55;;;19.30;59.60;;;;;;5074251;28;20020;-79
2022/10/01 08:21:47;;;;;;;3.70;3.03;;;19.40;58.40;;;;;;5072804;28;20032;-77
2022/10/01 08:24:13;;;;;;;4.35;3.17;;;19.50;58.20;;;;;;5072714;28;20044;-78
2022/10/01 08:26:39;;;;;;;4.47;3.08;;;19.60;58.30;;;;;;5074125;28;20099;-77
2022/10/01 08:29:04;;;;;;;4.93;3.53;;;19.60;58.00;;;;;;5072826;28;20039;-76
2022/10/01 08:31:31;;;;;;;7.72;3.40;;;19.70;57.90;;;;;;5072700;28;20020;-77
2022/10/01 08:33:56;;;;;;;4.80;3.80;;;19.80;57.70;;;;;;5074030;28;20029;-79
2022/10/01 08:36:22;;;;;;;4.63;3.40;;;19.80;57.30;;;;;;5072620;28;20394;-77
2022/10/01 08:38:48;;;;;;;8.73;4.10;;;19.80;57.20;;;;;;5072661;28;20020;-79
2022/10/01 08:41:41;;;;;;;5.47;3.88;;;19.90;57.00;;;;;;5073960;28;20028;-77
2022/10/01 08:44:17;;;;;;;5.65;3.90;;;19.90;56.80;;;;;;5072794;28;20333;-76
2022/10/01 08:46:44;;;;;;;4.55;3.83;;;19.90;56.70;;;;;;5072243;28;20118;-76
2022/10/01 08:49:24;;;;;;;5.38;4.13;;;19.90;56.70;;;;;;5091263;28;20093;-77
2022/10/01 08:51:58;;;;;;;5.18;4.50;;;20.00;56.10;;;;;;5094057;28;20062;-79
2022/10/01 08:54:34;;;;;;;7.88;5.28;;;20.00;55.40;;;;;;5093891;28;20125;-76
2022/10/01 08:57:02;;;;;;;5.40;4.32;;;20.00;55.30;;;;;;5093727;28;20531;-78
2022/10/01 08:59:41;;;;;;;10.82;4.90;;;20.10;55.80;;;;;;5093891;28;20070;-77
2022/10/01 09:02:36;;;;;;;10.32;5.75;;;20.10;55.30;;;;;;5093889;28;20026;-79
2022/10/01 09:05:20;;;;;;;9.52;5.20;;;20.20;55.10;;;;;;5090696;28;20036;-77
2022/10/01 09:07:46;;;;;;;11.20;4.85;;;20.30;54.60;;;;;;5093870;28;20016;-77
2022/10/01 09:10:41;;;;;;;6.40;5.40;;;20.40;54.90;;;;;;5093740;28;20389;-78
2022/10/01 09:13:06;;;;;;;;;;;20.40;54.70;;;;;;5094117;28;20401;-78
2022/10/01 09:15:52;;;;;;;6.57;4.90;;;20.50;56.10;;;;;;5093437;28;19904;-76
2022/10/01 09:18:52;;;;;;;6.82;4.90;;;20.60;53.90;;;;;;5091366;28;20389;-78
2022/10/01 09:21:25;;;;;;;7.18;5.40;;;20.60;53.80;;;;;;5093754;28;20098;-75
2022/10/01 09:24:02;;;;;;;11.65;6.43;;;20.50;53.00;;;;;;5093554;28;20032;-77
2022/10/01 09:26:28;;;;;;;6.55;5.28;;;20.50;52.90;;;;;;5093561;28;20028;-77
2022/10/01 09:28:57;;;;;;;6.95;4.70;;;20.50;53.50;;;;;;5093618;28;20095;-79
2022/10/01 09:31:40;;;;;;;9.57;5.65;;;20.50;53.20;;;;;;5092215;28;20020;-78
2022/10/01 09:34:14;;;;;;;6.55;5.38;;;20.60;53.20;;;;;;5092092;28;20035;-78
2022/10/01 09:37:06;;;;;;;9.50;5.07;;;20.70;52.90;;;;;;5093437;28;20031;-77
2022/10/01 09:40:05;;;;;;;10.43;5.35;;;20.80;52.60;;;;;;5092897;28;20040;-77
2022/10/01 09:42:31;;;;;;;9.05;5.15;;;21.00;52.10;;;;;;5093351;28;20485;-79
2022/10/01 09:44:57;;;;;;;6.80;5.13;;;21.10;51.90;;;;;;5093295;28;20028;-78
2022/10/01 09:47:27;;;;;;;6.30;5.07;;;21.20;51.30;;;;;;5092775;28;20048;-77
2022/10/01 09:49:53;;;;;;;6.13;5.00;;;21.30;51.00;;;;;;5093066;28;20035;-76
2022/10/01 09:52:27;;;;;;;6.45;5.18;;;21.30;50.60;;;;;;5093102;28;20504;-74
2022/10/01 09:55:19;;;;;;;7.82;5.20;;;21.40;50.50;;;;;;5108993;28;20473;-75
2022/10/01 09:58:08;;;;;;;13.32;6.70;;;21.40;50.00;;;;;;5092764;28;20032;-74
2022/10/01 10:00:36;;;;;;;5.63;4.97;;;21.50;50.00;;;;;;5082334;28;20389;-77
2022/10/01 10:03:02;;;;;;;7.88;5.03;;;21.60;49.60;;;;;;5108571;28;20028;-76
2022/10/01 10:05:38;;;;;;;5.47;4.82;;;21.60;50.00;;;;;;5093335;28;20031;-76
2022/10/01 10:08:46;;;;;;;7.22;5.68;;;21.70;50.30;;;;;;5093096;28;20024;-76
2022/10/01 10:11:29;;;;;;;6.70;5.10;;;21.70;49.90;;;;;;5053478;28;20074;-78
2022/10/01 10:14:01;;;;;;;7.03;4.05;;;21.70;49.90;;;;;;5070507;28;20037;-76
2022/10/01 10:16:33;;;;;;;7.53;5.25;;;21.70;49.70;;;;;;5070517;28;20032;-77
2022/10/01 10:19:09;;;;;;;7.20;5.15;;;21.70;48.50;;;;;;5053638;28;20397;-77
2022/10/01 10:21:35;;;;;;;8.55;4.88;;;21.70;49.00;;;;;;5070482;28;20043;-77
2022/10/01 10:24:03;;;;;;;7.10;4.88;;;21.80;49.30;;;;;;5070627;28;20108;-76
2022/10/01 10:26:37;;;;;;;7.75;4.82;;;21.80;49.20;;;;;;5053569;28;20025;-76
2022/10/01 10:29:06;;;;;;;5.32;4.00;;;21.80;49.50;;;;;;5074139;28;20044;-78
2022/10/01 10:31:45;;;;;;;7.13;4.00;;;21.90;49.80;;;;;;5056934;28;20119;-76
2022/10/01 10:34:13;;;;;;;4.45;3.80;;;21.90;49.40;;;;;;5074173;28;20025;-79
2022/10/01 10:36:42;;;;;;;5.63;3.83;;;22.00;48.90;;;;;;5074060;28;20024;-78
2022/10/01 10:39:33;;;;;;;12.05;5.00;;;22.10;48.50;;;;;;5073854;28;20529;-77
2022/10/01 10:42:02;;;;;;;7.18;4.60;;;22.20;49.00;;;;;;5065086;28;20043;-78
2022/10/01 10:44:35;;;;;;;5.95;3.50;;;22.30;47.40;;;;;;5073895;28;20033;-77
2022/10/01 10:47:04;;;;;;;5.53;4.18;;;22.30;47.90;;;;;;5087713;28;20052;-77
2022/10/01 10:49:32;;;;;;;4.75;3.85;;;22.30;47.00;;;;;;5096195;28;20031;-76
2022/10/01 10:51:59;;;;;;;5.10;4.00;;;22.30;47.00;;;;;;5096271;28;20027;-77
2022/10/01 10:54:40;;;;;;;4.10;3.70;;;22.30;47.00;;;;;;5096195;28;20052;-76
2022/10/01 10:57:29;;;;;;;12.93;3.75;;;22.20;47.40;;;;;;5096336;28;20379;-75
2022/10/01 11:00:01;;;;;;;5.82;3.17;;;22.20;47.40;;;;;;5096226;28;20116;-76
2022/10/01 11:02:29;;;;;;;3.97;3.55;;;22.20;47.30;;;;;;5104427;28;20366;-76
2022/10/01 11:04:57;;;;;;;5.90;3.88;;;22.20;47.40;;;;;;5075711;28;20474;-79
2022/10/01 11:07:25;;;;;;;4.57;3.38;;;22.20;47.50;;;;;;5076115;28;20020;-75
2022/10/01 11:10:22;;;;;;;4.90;3.15;;;22.20;47.30;;;;;;5074234;28;20036;-77
2022/10/01 11:13:03;;;;;;;6.88;3.35;;;22.20;47.50;;;;;;5074337;28;20040;-76
2022/10/01 11:15:40;;;;;;;3.63;2.90;;;22.20;47.60;;;;;;5075645;28;20024;-76
2022/10/01 11:18:15;;;;;;;3.90;3.03;;;22.10;47.80;;;;;;5083511;28;20012;-76
2022/10/01 11:20:49;;;;;;;3.50;3.08;;;22.10;47.90;;;;;;5095637;28;20028;-76
2022/10/01 11:23:26;;;;;;;;;;;22.10;47.70;;;;;;5095977;28;20020;-77
2022/10/01 11:26:18;;;;;;;5.95;3.20;;;22.10;48.70;;;;;;5095606;28;19944;-77
2022/10/01 11:28:52;;;;;;;4.57;3.10;;;22.10;47.60;;;;;;5095589;28;20034;-77
2022/10/01 11:31:32;;;;;;;5.10;3.10;;;22.10;47.50;;;;;;5095466;28;20020;-75
2022/10/01 11:34:37;;;;;;;4.03;3.20;;;22.00;47.80;;;;;;5111093;28;20557;-76
2022/10/01 11:37:36;;;;;;;3.53;2.95;;;22.00;47.90;;;;;;5079184;28;20036;-77
2022/10/01 11:40:27;;;;;;;4.65;2.88;;;21.90;48.10;;;;;;5109735;28;20485;-78
2022/10/01 11:43:01;;;;;;;3.75;2.53;;;21.90;47.90;;;;;;5089388;28;20040;-75
2022/10/01 11:45:39;;;;;;;8.95;3.05;;;21.90;48.00;;;;;;5094980;28;20127;-76
2022/10/01 11:48:16;;;;;;;3.05;2.75;;;21.80;48.30;;;;;;5093745;28;20452;-77
2022/10/01 11:50:47;;;;;;;3.90;2.50;;;21.80;48.00;;;;;;5094927;28;20480;-78
2022/10/01 11:53:29;;;;;;;4.55;3.17;;;21.80;48.20;;;;;;5094952;28;20020;-78
2022/10/01 11:59:14;;;;;;;2.83;2.45;;;21.80;48.30;;;;;;5095618;28;20081;-75
2022/10/01 12:02:13;;;;;;;4.15;2.78;;;21.80;48.40;;;;;;5095127;28;20098;-75
2022/10/01 12:04:49;;;;;;;3.50;2.33;;;21.80;48.50;;;;;;5058987;28;20039;-78
2022/10/01 12:07:26;;;;;;;3.70;2.35;;;21.80;47.80;;;;;;5094852;28;20047;-78
2022/10/01 12:10:17;;;;;;;2.63;1.92;;;21.90;47.10;;;;;;5094667;28;20024;-77
2022/10/01 12:13:06;;;;;;;2.22;1.90;;;21.80;46.80;;;;;;5094708;28;20053;-78
2022/10/01 12:15:43;;;;;;;2.85;1.73;;;21.80;46.80;;;;;;5094793;28;20043;-76
2022/10/01 12:18:27;;;;;;;3.17;2.20;;;21.80;47.10;;;;;;5093034;28;20028;-77
2022/10/01 12:20:56;;;;;;;4.25;1.90;;;21.80;47.20;;;;;;5093366;28;20024;-76
2022/10/01 12:23:33;;;;;;;5.88;2.15;;;21.80;47.50;;;;;;5094588;28;20393;-78
2022/10/01 12:26:09;;;;;;;4.53;1.75;;;21.80;47.40;;;;;;5093162;28;20034;-76
2022/10/01 12:29:21;;;;;;;3.22;2.03;;;21.90;47.20;;;;;;5094436;28;20024;-79
2022/10/01 12:32:01;;;;;;;1.98;1.55;;;21.90;47.10;;;;;;5051810;28;20057;-76
2022/10/01 12:34:35;;;;;;;5.00;1.70;;;22.00;47.00;;;;;;5051916;28;20036;-79
2022/10/01 12:37:43;;;;;;;11.75;1.70;;;22.10;45.30;;;;;;5051927;28;20082;-78
2022/10/01 12:40:48;;;;;;;2.13;1.58;;;22.10;45.00;;;;;;5051961;28;20078;-78
2022/10/01 12:43:41;;;;;;;5.88;1.75;;;22.10;45.10;;;;;;5012005;28;20037;-77
2022/10/01 12:46:31;;;;;;;2.80;1.52;;;22.10;44.10;;;;;;5051303;28;20592;-77
2022/10/01 12:49:21;;;;;;;2.55;1.40;;;22.00;44.40;;;;;;5051237;28;20068;-76
2022/10/01 12:51:54;;;;;;;1.95;1.38;;;21.90;43.80;;;;;;5051228;28;20057;-75
2022/10/01 12:54:31;;;;;;;1.40;1.15;;;21.80;43.90;;;;;;5051448;28;20212;-78
2022/10/01 12:57:15;;;;;;;2.67;1.30;;;21.80;44.60;;;;;;5051242;28;20021;-78
2022/10/01 12:59:58;;;;;;;1.55;1.30;;;21.70;44.20;;;;;;5051086;28;20017;-77
2022/10/01 13:02:46;;;;;;;1.70;1.25;;;21.70;44.40;;;;;;5051106;28;20021;-78
2022/10/01 13:05:35;;;;;;;3.05;1.85;;;21.70;44.60;;;;;;5050971;28;20032;-75
2022/10/01 13:08:16;;;;;;;3.13;1.70;;;21.70;44.80;;;;;;5065888;28;20087;-76
2022/10/01 13:11:09;;;;;;;2.08;1.65;;;21.70;45.50;;;;;;5073074;28;20028;-78
2022/10/01 13:13:37;;;;;;;1.55;1.13;;;21.60;44.70;;;;;;5071849;28;20017;-77
2022/10/01 13:16:19;;;;;;;5.70;1.80;;;21.70;45.60;;;;;;5073199;28;20381;-77
2022/10/01 13:18:57;;;;;;;1.92;1.55;;;21.70;45.70;;;;;;5084698;28;20091;-77